createdAt,value
2023-02-24T00:02:27.118Z,29.83
2023-02-24T00:05:01.258Z,32.10
2023-02-24T00:07:38.031Z,43.73
2023-02-24T00:10:07.444Z,29.20
2023-02-24T00:12:44.439Z,30.77
2023-02-24T00:15:16.649Z,31.73
2023-02-24T00:17:48.360Z,28.20
2023-02-24T00:20:33.557Z,34.90
2023-02-24T00:23:04.544Z,35.63
2023-02-24T00:25:37.476Z,31.87
2023-02-24T00:28:07.585Z,35.83
2023-02-24T00:30:39.760Z,31.70
2023-02-24T00:33:14.943Z,30.60
2023-02-24T00:35:47.119Z,34.53
2023-02-24T00:38:18.609Z,35.53
2023-02-24T00:40:48.086Z,30.57
2023-02-24T00:43:19.070Z,32.10
2023-02-24T00:45:52.230Z,31.70
2023-02-24T00:48:24.782Z,31.70
2023-02-24T00:51:08.756Z,43.47
2023-02-24T00:53:39.819Z,40.47
2023-02-24T00:56:13.336Z,37.77
2023-02-24T00:58:47.375Z,34.47
2023-02-24T01:01:22.039Z,38.30
2023-02-24T01:03:54.830Z,33.30
2023-02-24T01:06:43.529Z,37.63
2023-02-24T01:09:13.778Z,33.90
2023-02-24T01:12:05.616Z,32.67
2023-02-24T01:14:41.288Z,34.90
2023-02-24T01:17:22.284Z,37.47
2023-02-24T01:19:53.194Z,36.43
2023-02-24T01:22:29.463Z,32.03
2023-02-24T01:24:58.751Z,36.20
2023-02-24T01:27:33.865Z,37.03
2023-02-24T01:30:16.544Z,36.97
2023-02-24T01:32:50.557Z,36.77
2023-02-24T01:35:20.089Z,38.37
2023-02-24T01:38:08.394Z,33.57
2023-02-24T01:40:38.736Z,38.77
2023-02-24T01:43:10.875Z,39.57
2023-02-24T01:45:43.171Z,41.10
2023-02-24T01:48:11.501Z,37.23
2023-02-24T01:50:42.581Z,40.77
2023-02-24T01:53:24.481Z,40.33
2023-02-24T01:55:54.525Z,38.57
2023-02-24T01:58:27.078Z,42.03
2023-02-24T02:01:06.946Z,41.80
2023-02-24T02:07:46.841Z,40.43
2023-02-24T02:10:35.138Z,38.00
2023-02-24T02:13:06.522Z,41.83
2023-02-24T02:15:45.782Z,36.87
2023-02-24T02:18:22.542Z,42.57
2023-02-24T02:21:32.944Z,39.93
2023-02-24T02:24:35.044Z,37.90
2023-02-24T02:27:42.686Z,42.73
2023-02-24T02:30:55.588Z,37.63
2023-02-24T02:33:50.664Z,36.20
2023-02-24T02:36:36.892Z,35.83
2023-02-24T02:39:13.433Z,37.63
2023-02-24T02:42:02.717Z,36.17
2023-02-24T02:44:40.785Z,34.30
2023-02-24T02:47:26.206Z,35.37
2023-02-24T02:50:08.291Z,47.40
2023-02-24T02:52:46.434Z,37.00
2023-02-24T02:55:21.745Z,36.63
2023-02-24T02:57:55.226Z,37.17
2023-02-24T03:00:29.305Z,37.23
2023-02-24T03:03:05.005Z,38.50
2023-02-24T03:05:46.638Z,32.00
2023-02-24T03:08:33.613Z,36.70
2023-02-24T03:11:05.633Z,38.33
2023-02-24T03:13:43.535Z,35.33
2023-02-24T03:16:14.672Z,34.23
2023-02-24T03:18:51.086Z,35.90
2023-02-24T03:21:31.170Z,34.00
2023-02-24T03:24:08.054Z,36.07
2023-02-24T03:26:45.611Z,34.30
2023-02-24T03:29:23.828Z,41.23
2023-02-24T03:32:03.680Z,38.73
2023-02-24T03:34:57.575Z,41.13
2023-02-24T03:37:29.217Z,35.10
2023-02-24T03:40:11.981Z,38.13
2023-02-24T03:42:45.359Z,36.50
2023-02-24T03:45:18.325Z,36.00
2023-02-24T03:47:56.168Z,38.43
2023-02-24T03:50:31.964Z,39.20
2023-02-24T03:53:17.745Z,38.00
2023-02-24T03:55:59.882Z,33.70
2023-02-24T03:58:43.069Z,39.97
2023-02-24T04:01:18.231Z,39.40
2023-02-24T04:03:54.371Z,40.30
2023-02-24T04:06:38.366Z,38.33
2023-02-24T04:09:16.736Z,36.63
2023-02-24T04:12:27.689Z,35.17
2023-02-24T04:15:09.191Z,40.00
2023-02-24T04:17:42.381Z,37.83
2023-02-24T04:20:15.817Z,43.87
2023-02-24T04:22:58.771Z,36.03
2023-02-24T04:25:28.836Z,39.27
2023-02-24T04:28:05.235Z,44.17
2023-02-24T04:30:37.091Z,44.07
2023-02-24T04:33:10.169Z,45.13
2023-02-24T04:35:41.983Z,50.47
2023-02-24T04:38:18.770Z,44.97
2023-02-24T04:40:49.721Z,43.50
2023-02-24T04:43:29.530Z,47.17
2023-02-24T04:45:57.781Z,44.67
2023-02-24T04:48:27.498Z,46.90
2023-02-24T04:50:56.061Z,45.67
2023-02-24T04:53:29.936Z,42.10
2023-02-24T04:55:58.687Z,42.40
2023-02-24T04:58:29.657Z,40.80
2023-02-24T05:01:03.692Z,39.23
2023-02-24T05:03:35.219Z,43.10
2023-02-24T05:06:06.730Z,47.83
2023-02-24T05:08:36.440Z,43.73
2023-02-24T05:11:08.310Z,51.40
2023-02-24T05:13:53.878Z,44.27
2023-02-24T05:16:23.229Z,41.73
2023-02-24T05:19:19.508Z,45.50
2023-02-24T05:21:49.122Z,43.47
2023-02-24T05:24:20.939Z,49.17
2023-02-24T05:26:58.497Z,51.50
2023-02-24T05:29:41.247Z,45.30
2023-02-24T05:32:18.504Z,44.70
2023-02-24T05:34:49.530Z,43.83
2023-02-24T05:37:30.159Z,46.73
2023-02-24T05:40:01.937Z,44.70
2023-02-24T05:42:35.219Z,48.70
2023-02-24T05:45:09.124Z,44.23
2023-02-24T05:47:45.584Z,46.57
2023-02-24T05:50:14.577Z,43.27
2023-02-24T05:52:45.913Z,39.47
2023-02-24T05:55:19.495Z,45.43
2023-02-24T05:57:53.783Z,49.83
2023-02-24T06:00:27.060Z,45.67
2023-02-24T06:03:08.560Z,45.70
2023-02-24T06:05:42.773Z,40.53
2023-02-24T06:08:13.075Z,42.73
2023-02-24T06:10:42.358Z,50.17
2023-02-24T06:13:14.327Z,46.60
2023-02-24T06:15:50.437Z,42.23
2023-02-24T06:18:22.421Z,42.20
2023-02-24T06:20:56.404Z,42.57
2023-02-24T06:23:27.796Z,43.53
2023-02-24T06:25:59.644Z,45.97
2023-02-24T06:28:29.437Z,48.00
2023-02-24T06:31:07.033Z,43.83
2023-02-24T06:33:46.255Z,46.23
2023-02-24T06:36:19.271Z,48.43
2023-02-24T06:38:52.776Z,46.83
2023-02-24T06:41:30.576Z,46.83
2023-02-24T06:44:02.317Z,50.50
2023-02-24T06:46:33.262Z,44.03
2023-02-24T06:49:10.322Z,46.23
2023-02-24T06:51:41.269Z,45.90
2023-02-24T06:54:11.206Z,46.00
2023-02-24T06:56:43.473Z,45.23
2023-02-24T06:59:18.802Z,48.13
2023-02-24T07:01:50.077Z,44.30
2023-02-24T07:04:21.447Z,44.90
2023-02-24T07:06:57.118Z,47.63
2023-02-24T07:09:28.490Z,39.73
2023-02-24T07:12:02.806Z,43.73
2023-02-24T07:14:32.668Z,46.00
2023-02-24T07:17:03.818Z,44.00
2023-02-24T07:19:35.731Z,37.00
2023-02-24T07:22:04.395Z,46.63
2023-02-24T07:24:46.448Z,41.43
2023-02-24T07:27:29.923Z,42.27
2023-02-24T07:30:06.653Z,41.60
2023-02-24T07:32:49.488Z,40.80
2023-02-24T07:35:20.399Z,43.57
2023-02-24T07:37:51.898Z,47.80
2023-02-24T07:40:23.246Z,49.13
2023-02-24T07:42:54.860Z,40.27
2023-02-24T07:45:24.941Z,36.10
2023-02-24T07:48:03.776Z,43.03
2023-02-24T07:50:38.024Z,38.27
2023-02-24T07:53:12.636Z,43.40
2023-02-24T07:55:42.201Z,41.40
2023-02-24T07:58:22.461Z,39.37
2023-02-24T08:01:01.959Z,40.37
2023-02-24T08:03:41.358Z,35.97
2023-02-24T08:06:15.744Z,38.27
2023-02-24T08:09:00.368Z,33.80
2023-02-24T08:11:35.838Z,40.30
2023-02-24T08:14:08.679Z,33.57
2023-02-24T08:16:40.827Z,38.80
2023-02-24T08:19:15.034Z,33.97
2023-02-24T08:21:47.706Z,34.43
2023-02-24T08:24:22.352Z,32.53
2023-02-24T08:27:04.544Z,35.13
2023-02-24T08:29:40.408Z,34.80
2023-02-24T08:32:11.004Z,31.37
2023-02-24T08:34:50.112Z,36.57
2023-02-24T08:37:18.809Z,35.30
2023-02-24T08:39:47.296Z,34.23
2023-02-24T08:42:19.475Z,36.30
2023-02-24T08:44:55.865Z,33.60
2023-02-24T08:47:41.529Z,37.00
2023-02-24T08:50:30.484Z,33.40
2023-02-24T08:53:01.207Z,32.87
2023-02-24T08:55:34.855Z,32.97
2023-02-24T08:58:04.602Z,31.77
2023-02-24T09:00:49.523Z,32.63
2023-02-24T09:03:28.100Z,31.07
2023-02-24T09:06:09.353Z,32.50
2023-02-24T09:08:43.720Z,31.40
2023-02-24T09:11:15.483Z,31.73
2023-02-24T09:14:01.753Z,32.33
2023-02-24T09:16:35.786Z,27.07
2023-02-24T09:19:42.852Z,28.27
2023-02-24T09:22:57.446Z,28.27
2023-02-24T09:25:40.953Z,39.00
2023-02-24T09:28:19.305Z,24.63
2023-02-24T09:30:55.338Z,26.70
2023-02-24T09:33:28.302Z,27.70
2023-02-24T09:36:10.694Z,27.77
2023-02-24T09:39:14.888Z,27.30
2023-02-24T09:41:57.159Z,30.03
2023-02-24T09:44:34.623Z,29.53
2023-02-24T09:47:24.525Z,25.30
2023-02-24T09:50:02.001Z,30.43
2023-02-24T09:52:44.311Z,25.30
2023-02-24T09:55:46.293Z,27.73
2023-02-24T09:58:34.755Z,23.87
2023-02-24T10:01:33.420Z,22.90
2023-02-24T10:04:25.320Z,24.77
2023-02-24T10:07:05.422Z,23.40
2023-02-24T10:09:39.584Z,22.97
2023-02-24T10:12:21.625Z,20.73
2023-02-24T10:15:05.639Z,24.13
2023-02-24T10:17:40.586Z,22.43
2023-02-24T10:20:31.309Z,21.40
2023-02-24T10:23:04.927Z,23.10
2023-02-24T10:25:54.261Z,21.87
2023-02-24T10:28:46.099Z,23.47
2023-02-24T10:31:33.303Z,19.93
2023-02-24T10:34:06.518Z,18.40
2023-02-24T10:36:50.442Z,17.77
2023-02-24T10:39:41.300Z,23.20
2023-02-24T10:42:25.074Z,19.43
2023-02-24T10:45:17.223Z,15.87
2023-02-24T10:47:59.053Z,19.70
2023-02-24T10:50:54.979Z,17.77
2023-02-24T10:53:34.691Z,17.50
2023-02-24T10:56:30.944Z,20.37
2023-02-24T10:59:35.575Z,19.60
2023-02-24T11:02:32.987Z,25.20
2023-02-24T11:05:29.756Z,17.57
2023-02-24T11:08:28.931Z,19.50
2023-02-24T11:11:07.335Z,15.47
2023-02-24T11:13:58.637Z,12.70
2023-02-24T11:16:52.715Z,16.97
2023-02-24T11:19:46.092Z,14.90
2023-02-24T11:22:20.679Z,13.10
2023-02-24T11:24:54.319Z,17.33
2023-02-24T11:27:34.074Z,11.33
2023-02-24T11:30:23.271Z,15.40
2023-02-24T11:33:17.807Z,12.87
2023-02-24T11:36:07.654Z,18.97
2023-02-24T11:38:44.154Z,13.57
2023-02-24T11:41:24.536Z,12.53
2023-02-24T11:44:00.141Z,14.97
2023-02-24T11:46:40.743Z,14.47
2023-02-24T11:49:23.311Z,9.67
2023-02-24T11:51:57.059Z,11.33
2023-02-24T11:54:29.993Z,13.67
2023-02-24T11:56:59.454Z,10.13
2023-02-24T11:59:37.206Z,10.90
2023-02-24T12:02:21.097Z,9.13
2023-02-24T12:05:00.721Z,9.10
2023-02-24T12:07:38.883Z,6.90
2023-02-24T12:10:18.520Z,6.53
2023-02-24T12:12:50.950Z,7.20
2023-02-24T12:15:25.794Z,6.37
2023-02-24T12:18:05.430Z,12.67
2023-02-24T12:20:41.794Z,6.63
2023-02-24T12:23:21.108Z,7.37
2023-02-24T12:26:13.202Z,5.57
2023-02-24T12:29:16.285Z,12.30
2023-02-24T12:32:00.118Z,5.77
2023-02-24T12:34:42.078Z,4.37
2023-02-24T12:37:39.011Z,6.53
2023-02-24T12:40:20.083Z,6.10
2023-02-24T12:42:55.719Z,7.03
2023-02-24T12:45:33.253Z,8.93
2023-02-24T12:48:12.171Z,9.70
2023-02-24T12:50:51.827Z,13.87
2023-02-24T12:53:27.302Z,9.63
2023-02-24T12:56:19.327Z,12.50
2023-02-24T12:58:52.565Z,14.23
2023-02-24T13:01:28.037Z,13.97
2023-02-24T13:04:15.669Z,15.53
2023-02-24T13:07:02.733Z,14.20
2023-02-24T13:09:44.360Z,15.77
2023-02-24T13:12:24.261Z,17.47
2023-02-24T13:14:52.620Z,15.43
2023-02-24T13:17:30.330Z,17.70
2023-02-24T13:20:13.755Z,15.20
2023-02-24T13:22:44.748Z,15.63
2023-02-24T13:25:24.140Z,13.87
2023-02-24T13:28:29.166Z,15.10
2023-02-24T13:31:04.262Z,13.83
2023-02-24T13:33:37.532Z,15.40
2023-02-24T13:36:42.317Z,16.37
2023-02-24T13:39:26.760Z,12.67
2023-02-24T13:42:07.614Z,14.77
2023-02-24T13:44:54.091Z,20.50
2023-02-24T13:47:53.021Z,17.00
2023-02-24T13:50:28.818Z,17.57
2023-02-24T13:53:35.984Z,11.20
2023-02-24T13:56:24.899Z,10.97
2023-02-24T13:59:01.686Z,7.27
2023-02-24T14:01:53.506Z,4.70
2023-02-24T14:04:33.619Z,43.70
2023-02-24T14:07:05.189Z,21.93
2023-02-24T14:09:35.847Z,14.70
2023-02-24T14:12:15.357Z,13.10
2023-02-24T14:14:53.114Z,13.90
2023-02-24T14:17:30.419Z,12.50
2023-02-24T14:20:11.335Z,7.83
2023-02-24T14:22:47.592Z,15.17
2023-02-24T14:25:24.293Z,10.73
2023-02-24T14:28:00.105Z,10.93
2023-02-24T14:30:35.562Z,4.70
2023-02-24T14:33:23.365Z,8.00
2023-02-24T14:35:51.447Z,8.70
2023-02-24T14:38:39.804Z,9.80
2023-02-24T14:41:22.931Z,10.50
2023-02-24T14:43:54.872Z,5.40
2023-02-24T14:46:25.659Z,7.87
2023-02-24T14:49:01.977Z,7.23
2023-02-24T14:51:34.261Z,6.97
2023-02-24T14:54:09.631Z,9.30
2023-02-24T14:56:44.060Z,8.80
2023-02-24T14:59:24.566Z,9.83
2023-02-24T15:02:05.146Z,13.27
2023-02-24T15:04:44.923Z,8.70
2023-02-24T15:07:21.080Z,9.17
2023-02-24T15:09:52.854Z,9.87
2023-02-24T15:12:29.347Z,10.70
2023-02-24T15:15:09.980Z,9.67
2023-02-24T15:17:40.918Z,10.27
2023-02-24T15:20:32.748Z,11.73
2023-02-24T15:23:05.574Z,9.63
2023-02-24T15:25:44.616Z,14.37
2023-02-24T15:28:25.990Z,11.43
2023-02-24T15:31:05.194Z,10.07
2023-02-24T15:33:43.707Z,11.10
2023-02-24T15:36:23.998Z,12.17
2023-02-24T15:38:55.000Z,9.13
2023-02-24T15:41:32.055Z,9.60
2023-02-24T15:44:04.200Z,8.13
2023-02-24T15:46:36.316Z,11.10
2023-02-24T15:49:07.064Z,9.70
2023-02-24T15:51:41.970Z,9.60
2023-02-24T15:54:17.480Z,12.20
2023-02-24T15:56:55.100Z,8.93
2023-02-24T15:59:37.020Z,11.13
2023-02-24T16:02:20.307Z,12.10
2023-02-24T16:04:50.805Z,11.20
2023-02-24T16:07:37.404Z,6.73
2023-02-24T16:10:14.629Z,8.90
2023-02-24T16:12:49.637Z,10.43
2023-02-24T16:15:26.523Z,11.20
2023-02-24T16:17:57.831Z,9.37
2023-02-24T16:20:40.572Z,9.53
2023-02-24T16:23:16.849Z,9.07
2023-02-24T16:25:52.419Z,13.67
2023-02-24T16:28:28.868Z,11.70
2023-02-24T16:31:05.269Z,10.23
2023-02-24T16:33:51.709Z,13.70
2023-02-24T16:36:29.300Z,8.80
2023-02-24T16:39:06.102Z,7.87
2023-02-24T16:41:44.187Z,8.70
2023-02-24T16:44:17.235Z,9.27
2023-02-24T16:46:57.338Z,8.10
2023-02-24T16:49:27.654Z,10.80
2023-02-24T16:51:57.980Z,10.33
2023-02-24T16:54:35.676Z,10.13
2023-02-24T16:57:12.675Z,7.70
2023-02-24T16:59:41.591Z,9.40
2023-02-24T17:02:30.994Z,8.17
2023-02-24T17:05:03.858Z,11.60
2023-02-24T17:07:45.879Z,10.77
2023-02-24T17:10:24.964Z,9.53
2023-02-24T17:12:55.041Z,10.10
2023-02-24T17:15:27.750Z,13.00
2023-02-24T17:17:57.693Z,11.77
2023-02-24T17:20:30.083Z,14.40
2023-02-24T17:22:59.640Z,15.53
2023-02-24T17:25:43.823Z,18.87
2023-02-24T17:28:20.590Z,20.00
2023-02-24T17:30:54.386Z,19.00
2023-02-24T17:33:25.123Z,13.80
2023-02-24T17:36:01.160Z,12.67
2023-02-24T17:38:32.226Z,11.73
2023-02-24T17:41:03.843Z,20.33
2023-02-24T17:43:36.370Z,14.00
2023-02-24T17:46:08.585Z,10.70
2023-02-24T17:48:38.031Z,13.70
2023-02-24T17:51:14.375Z,13.67
2023-02-24T17:53:47.774Z,14.80
2023-02-24T17:56:21.937Z,9.43
2023-02-24T17:59:10.902Z,15.10
2023-02-24T18:01:46.758Z,14.30
2023-02-24T18:04:21.356Z,14.73
2023-02-24T18:06:56.129Z,17.50
2023-02-24T18:09:35.476Z,14.27
2023-02-24T18:12:28.338Z,16.50
2023-02-24T18:15:08.376Z,12.57
2023-02-24T18:17:41.013Z,22.43
2023-02-24T18:20:12.436Z,19.20
2023-02-24T18:22:50.142Z,12.47
2023-02-24T18:25:30.029Z,13.07
2023-02-24T18:28:06.695Z,12.70
2023-02-24T18:30:48.911Z,12.73
2023-02-24T18:33:29.171Z,13.37
2023-02-24T18:36:07.698Z,18.03
2023-02-24T18:38:39.368Z,14.00
2023-02-24T18:41:14.978Z,16.90
2023-02-24T18:43:58.519Z,16.80
2023-02-24T18:46:28.377Z,21.20
2023-02-24T18:49:12.384Z,18.63
2023-02-24T18:51:48.243Z,16.20
2023-02-24T18:54:25.994Z,13.03
2023-02-24T18:57:00.418Z,18.40
2023-02-24T18:59:47.277Z,13.03
2023-02-24T19:02:28.336Z,17.60
2023-02-24T19:05:00.474Z,19.40
2023-02-24T19:07:31.553Z,26.10
2023-02-24T19:10:18.773Z,18.67
2023-02-24T19:13:02.904Z,15.10
2023-02-24T19:15:39.078Z,11.80
2023-02-24T19:18:21.038Z,12.90
2023-02-24T19:20:54.977Z,17.83
2023-02-24T19:23:30.241Z,17.50
2023-02-24T19:26:12.564Z,19.23
2023-02-24T19:28:44.481Z,21.70
2023-02-24T19:31:24.881Z,22.33
2023-02-24T19:33:55.814Z,25.50
2023-02-24T19:36:43.566Z,18.37
2023-02-24T19:39:20.254Z,13.73
2023-02-24T19:41:53.308Z,18.30
2023-02-24T19:44:23.284Z,19.87
2023-02-24T19:47:07.895Z,27.47
2023-02-24T19:49:40.957Z,16.20
2023-02-24T19:52:14.498Z,16.43
2023-02-24T19:54:53.776Z,16.00
2023-02-24T19:57:34.321Z,16.83
2023-02-24T20:00:12.080Z,24.23
2023-02-24T20:02:56.636Z,24.70
2023-02-24T20:05:32.687Z,15.77
2023-02-24T20:08:06.969Z,19.47
2023-02-24T20:10:46.033Z,20.63
2023-02-24T20:13:24.619Z,17.97
2023-02-24T20:16:10.190Z,16.60
2023-02-24T20:18:48.520Z,18.20
2023-02-24T20:21:20.110Z,23.90
2023-02-24T20:24:01.435Z,15.27
2023-02-24T20:26:34.378Z,19.33
2023-02-24T20:29:07.468Z,18.47
2023-02-24T20:31:38.845Z,17.40
2023-02-24T20:34:25.661Z,15.17
2023-02-24T20:37:09.714Z,12.80
2023-02-24T20:39:47.556Z,10.20
2023-02-24T20:42:28.629Z,9.73
2023-02-24T20:45:11.486Z,16.90
2023-02-24T20:47:42.422Z,13.47
2023-02-24T20:50:20.770Z,8.27
2023-02-24T20:52:59.632Z,14.20
2023-02-24T20:55:31.759Z,8.17
2023-02-24T20:58:13.205Z,8.23
2023-02-24T21:00:48.332Z,10.70
2023-02-24T21:03:33.198Z,12.30
2023-02-24T21:06:20.912Z,7.27
2023-02-24T21:08:55.649Z,6.67
2023-02-24T21:11:27.438Z,8.00
2023-02-24T21:14:05.853Z,16.10
2023-02-24T21:16:37.004Z,9.30
2023-02-24T21:19:24.225Z,14.90
2023-02-24T21:22:04.774Z,11.20
2023-02-24T21:24:33.578Z,9.17
2023-02-24T21:27:06.079Z,6.07
2023-02-24T21:29:38.276Z,8.27
2023-02-24T21:32:08.392Z,6.53
2023-02-24T21:34:43.048Z,10.00
2023-02-24T21:37:20.396Z,11.67
2023-02-24T21:39:53.813Z,9.40
2023-02-24T21:42:24.680Z,5.13
2023-02-24T21:44:57.558Z,10.00
2023-02-24T21:47:34.594Z,4.83
2023-02-24T21:50:04.814Z,10.37
2023-02-24T21:52:38.797Z,11.00
2023-02-24T21:55:09.489Z,12.07
2023-02-24T21:57:42.306Z,9.63
2023-02-24T22:00:20.820Z,6.60
2023-02-24T22:02:56.924Z,9.23
2023-02-24T22:05:29.158Z,8.53
2023-02-24T22:08:05.600Z,8.07
2023-02-24T22:10:39.700Z,8.47
2023-02-24T22:13:13.814Z,18.00
2023-02-24T22:15:52.610Z,11.00
2023-02-24T22:18:35.905Z,18.13
2023-02-24T22:21:14.698Z,11.70
2023-02-24T22:23:52.316Z,14.07
2023-02-24T22:26:25.539Z,12.80
2023-02-24T22:29:04.473Z,17.43
2023-02-24T22:31:49.390Z,12.53
2023-02-24T22:34:24.458Z,9.90
2023-02-24T22:36:53.874Z,12.20
2023-02-24T22:39:28.244Z,12.73
2023-02-24T22:41:59.028Z,8.03
2023-02-24T22:44:35.266Z,9.93
2023-02-24T22:47:09.239Z,10.97
2023-02-24T22:49:41.242Z,8.07
2023-02-24T22:52:15.183Z,9.70
2023-02-24T22:54:56.680Z,8.70
2023-02-24T22:57:36.457Z,12.57
2023-02-24T23:00:10.825Z,11.53
2023-02-24T23:02:39.856Z,12.47
2023-02-24T23:05:11.572Z,16.20
2023-02-24T23:07:40.466Z,19.87
2023-02-24T23:10:23.708Z,11.83
2023-02-24T23:12:53.090Z,8.47
2023-02-24T23:15:28.663Z,8.40
2023-02-24T23:18:00.312Z,17.00
2023-02-24T23:20:39.001Z,12.60
2023-02-24T23:23:15.635Z,9.60
2023-02-24T23:26:01.079Z,17.77
2023-02-24T23:28:41.172Z,11.10
2023-02-24T23:31:10.648Z,15.97
2023-02-24T23:33:41.305Z,8.43
2023-02-24T23:36:11.025Z,9.03
2023-02-24T23:38:41.596Z,5.53
2023-02-24T23:41:13.561Z,7.57
2023-02-24T23:43:45.624Z,5.03
2023-02-24T23:46:22.570Z,5.23
2023-02-24T23:48:57.488Z,11.80
2023-02-24T23:51:35.767Z,6.43
2023-02-24T23:54:14.013Z,3.67
2023-02-24T23:56:53.927Z,6.57
2023-02-24T23:59:28.356Z,6.20
